sensor_id;sensor_type;location;lat;lon;timestamp;temperature;humidity
8109;DHT22;4097;47.812;12.374;2022-10-03T00:02:29;11.80;99.90
8109;DHT22;4097;47.812;12.374;2022-10-03T00:05:17;11.80;99.90
8109;DHT22;4097;47.812;12.374;2022-10-03T00:08:06;11.80;99.90
8109;DHT22;4097;47.812;12.374;2022-10-03T00:10:46;11.80;99.90
8109;DHT22;4097;47.812;12.374;2022-10-03T00:13:21;11.80;99.90
8109;DHT22;4097;47.812;12.374;2022-10-03T00:15:59;11.80;99.90
8109;DHT22;4097;47.812;12.374;2022-10-03T00:18:42;11.80;99.90
8109;DHT22;4097;47.812;12.374;2022-10-03T00:21:29;11.80;99.90
8109;DHT22;4097;47.812;12.374;2022-10-03T00:24:15;11.80;99.90
8109;DHT22;4097;47.812;12.374;2022-10-03T00:26:50;11.70;99.90
8109;DHT22;4097;47.812;12.374;2022-10-03T00:29:39;11.70;99.90
8109;DHT22;4097;47.812;12.374;2022-10-03T00:32:20;11.70;99.90
8109;DHT22;4097;47.812;12.374;2022-10-03T00:35:04;11.70;99.90
8109;DHT22;4097;47.812;12.374;2022-10-03T00:37:36;11.70;99.90
8109;DHT22;4097;47.812;12.374;2022-10-03T00:40:54;11.70;99.90
8109;DHT22;4097;47.812;12.374;2022-10-03T00:43:53;11.70;99.90
8109;DHT22;4097;47.812;12.374;2022-10-03T00:50:05;11.60;99.90
8109;DHT22;4097;47.812;12.374;2022-10-03T00:52:55;11.60;99.90
8109;DHT22;4097;47.812;12.374;2022-10-03T00:55:35;11.60;99.90
8109;DHT22;4097;47.812;12.374;2022-10-03T00:58:22;11.60;99.90
8109;DHT22;4097;47.812;12.374;2022-10-03T01:00:57;11.60;99.90
8109;DHT22;4097;47.812;12.374;2022-10-03T01:03:44;11.60;99.90
8109;DHT22;4097;47.812;12.374;2022-10-03T01:06:23;11.60;99.90
8109;DHT22;4097;47.812;12.374;2022-10-03T01:09:11;11.60;99.90
8109;DHT22;4097;47.812;12.374;2022-10-03T01:11:51;11.60;99.90
8109;DHT22;4097;47.812;12.374;2022-10-03T01:14:40;11.60;99.90
8109;DHT22;4097;47.812;12.374;2022-10-03T01:17:18;11.60;99.90
8109;DHT22;4097;47.812;12.374;2022-10-03T01:20:06;11.60;99.90
8109;DHT22;4097;47.812;12.374;2022-10-03T01:25:39;11.70;99.90
8109;DHT22;4097;47.812;12.374;2022-10-03T01:28:39;11.60;99.90
8109;DHT22;4097;47.812;12.374;2022-10-03T01:31:29;11.60;99.90
8109;DHT22;4097;47.812;12.374;2022-10-03T01:34:06;11.60;99.90
8109;DHT22;4097;47.812;12.374;2022-10-03T01:36:41;11.60;99.90
8109;DHT22;4097;47.812;12.374;2022-10-03T01:39:18;11.50;99.90
8109;DHT22;4097;47.812;12.374;2022-10-03T01:41:54;11.60;99.90
8109;DHT22;4097;47.812;12.374;2022-10-03T01:44:35;11.50;99.90
8109;DHT22;4097;47.812;12.374;2022-10-03T01:47:19;11.50;99.90
8109;DHT22;4097;47.812;12.374;2022-10-03T01:49:59;11.50;99.90
8109;DHT22;4097;47.812;12.374;2022-10-03T01:52:50;11.50;99.90
8109;DHT22;4097;47.812;12.374;2022-10-03T01:55:23;11.50;99.90
8109;DHT22;4097;47.812;12.374;2022-10-03T01:58:08;11.50;99.90
8109;DHT22;4097;47.812;12.374;2022-10-03T02:00:43;11.50;99.90
8109;DHT22;4097;47.812;12.374;2022-10-03T02:03:19;11.60;99.90
8109;DHT22;4097;47.812;12.374;2022-10-03T02:05:56;11.50;99.90
8109;DHT22;4097;47.812;12.374;2022-10-03T02:08:40;11.50;99.90
8109;DHT22;4097;47.812;12.374;2022-10-03T02:11:10;11.50;99.90
8109;DHT22;4097;47.812;12.374;2022-10-03T02:13:43;11.50;99.90
8109;DHT22;4097;47.812;12.374;2022-10-03T02:16:22;11.50;99.90
8109;DHT22;4097;47.812;12.374;2022-10-03T02:18:58;11.50;99.90
8109;DHT22;4097;47.812;12.374;2022-10-03T02:21:29;11.50;99.90
8109;DHT22;4097;47.812;12.374;2022-10-03T02:24:08;11.50;99.90
8109;DHT22;4097;47.812;12.374;2022-10-03T02:27:06;11.40;99.90
8109;DHT22;4097;47.812;12.374;2022-10-03T02:30:05;11.40;99.90
8109;DHT22;4097;47.812;12.374;2022-10-03T02:48:50;11.20;99.90
8109;DHT22;4097;47.812;12.374;2022-10-03T02:51:47;11.20;99.90
8109;DHT22;4097;47.812;12.374;2022-10-03T02:58:04;11.20;99.90
8109;DHT22;4097;47.812;12.374;2022-10-03T03:01:00;11.20;99.90
8109;DHT22;4097;47.812;12.374;2022-10-03T03:03:54;11.20;99.90
8109;DHT22;4097;47.812;12.374;2022-10-03T03:10:16;11.10;99.90
8109;DHT22;4097;47.812;12.374;2022-10-03T03:13:17;11.10;99.90
8109;DHT22;4097;47.812;12.374;2022-10-03T03:19:12;11.20;99.90
8109;DHT22;4097;47.812;12.374;2022-10-03T03:21:50;11.20;99.90
8109;DHT22;4097;47.812;12.374;2022-10-03T03:27:29;11.10;99.90
8109;DHT22;4097;47.812;12.374;2022-10-03T03:30:02;11.10;99.90
8109;DHT22;4097;47.812;12.374;2022-10-03T03:32:39;11.10;99.90
8109;DHT22;4097;47.812;12.374;2022-10-03T03:35:23;11.10;99.90
8109;DHT22;4097;47.812;12.374;2022-10-03T03:38:01;11.00;99.90
8109;DHT22;4097;47.812;12.374;2022-10-03T03:40:39;11.00;99.90
8109;DHT22;4097;47.812;12.374;2022-10-03T03:43:36;11.00;99.90
8109;DHT22;4097;47.812;12.374;2022-10-03T03:46:19;11.00;99.90
8109;DHT22;4097;47.812;12.374;2022-10-03T03:49:11;11.00;99.90
8109;DHT22;4097;47.812;12.374;2022-10-03T03:51:55;11.00;99.90
8109;DHT22;4097;47.812;12.374;2022-10-03T04:00:52;11.00;99.90
8109;DHT22;4097;47.812;12.374;2022-10-03T04:03:35;11.00;99.90
8109;DHT22;4097;47.812;12.374;2022-10-03T04:06:16;10.90;99.90
8109;DHT22;4097;47.812;12.374;2022-10-03T04:09:08;10.90;99.90
8109;DHT22;4097;47.812;12.374;2022-10-03T04:11:52;10.90;99.90
8109;DHT22;4097;47.812;12.374;2022-10-03T04:14:36;10.90;99.90
8109;DHT22;4097;47.812;12.374;2022-10-03T04:20:28;10.80;99.90
8109;DHT22;4097;47.812;12.374;2022-10-03T04:23:08;10.80;99.90
8109;DHT22;4097;47.812;12.374;2022-10-03T04:25:51;10.80;99.90
8109;DHT22;4097;47.812;12.374;2022-10-03T04:28:47;10.70;99.90
8109;DHT22;4097;47.812;12.374;2022-10-03T04:31:34;10.60;99.90
8109;DHT22;4097;47.812;12.374;2022-10-03T04:34:19;10.60;99.90
8109;DHT22;4097;47.812;12.374;2022-10-03T04:37:02;10.60;99.90
8109;DHT22;4097;47.812;12.374;2022-10-03T04:39:36;10.50;99.90
8109;DHT22;4097;47.812;12.374;2022-10-03T04:42:17;10.50;99.90
8109;DHT22;4097;47.812;12.374;2022-10-03T04:45:06;10.40;99.90
8109;DHT22;4097;47.812;12.374;2022-10-03T04:47:45;10.50;99.90
8109;DHT22;4097;47.812;12.374;2022-10-03T04:50:27;10.40;99.90
8109;DHT22;4097;47.812;12.374;2022-10-03T04:55:52;10.50;99.90
8109;DHT22;4097;47.812;12.374;2022-10-03T04:58:31;10.50;99.90
8109;DHT22;4097;47.812;12.374;2022-10-03T05:01:11;10.50;99.90
8109;DHT22;4097;47.812;12.374;2022-10-03T05:03:45;10.50;99.90
8109;DHT22;4097;47.812;12.374;2022-10-03T05:06:30;10.50;99.90
8109;DHT22;4097;47.812;12.374;2022-10-03T05:09:20;10.50;99.90
8109;DHT22;4097;47.812;12.374;2022-10-03T05:11:57;10.40;99.90
8109;DHT22;4097;47.812;12.374;2022-10-03T05:14:40;10.40;99.90
8109;DHT22;4097;47.812;12.374;2022-10-03T05:17:14;10.40;99.90
8109;DHT22;4097;47.812;12.374;2022-10-03T05:19:56;10.40;99.90
8109;DHT22;4097;47.812;12.374;2022-10-03T05:22:39;10.30;99.90
8109;DHT22;4097;47.812;12.374;2022-10-03T05:25:20;10.40;99.90
8109;DHT22;4097;47.812;12.374;2022-10-03T05:28:00;10.40;99.90
8109;DHT22;4097;47.812;12.374;2022-10-03T05:30:40;10.40;99.90
8109;DHT22;4097;47.812;12.374;2022-10-03T05:33:16;10.40;99.90
8109;DHT22;4097;47.812;12.374;2022-10-03T05:35:56;10.30;99.90
8109;DHT22;4097;47.812;12.374;2022-10-03T05:41:30;10.30;99.90
8109;DHT22;4097;47.812;12.374;2022-10-03T05:44:05;10.30;99.90
8109;DHT22;4097;47.812;12.374;2022-10-03T05:46:57;10.30;99.90
8109;DHT22;4097;47.812;12.374;2022-10-03T05:49:39;10.30;99.90
8109;DHT22;4097;47.812;12.374;2022-10-03T05:52:37;10.30;99.90
8109;DHT22;4097;47.812;12.374;2022-10-03T05:55:26;10.30;99.90
8109;DHT22;4097;47.812;12.374;2022-10-03T06:01:14;10.30;99.90
8109;DHT22;4097;47.812;12.374;2022-10-03T06:04:19;10.30;99.90
8109;DHT22;4097;47.812;12.374;2022-10-03T06:07:08;10.30;99.90
8109;DHT22;4097;47.812;12.374;2022-10-03T06:10:17;10.30;99.90
8109;DHT22;4097;47.812;12.374;2022-10-03T06:12:58;10.30;99.90
8109;DHT22;4097;47.812;12.374;2022-10-03T06:15:43;10.30;99.90
8109;DHT22;4097;47.812;12.374;2022-10-03T06:21:39;10.40;99.90
8109;DHT22;4097;47.812;12.374;2022-10-03T06:24:32;10.40;99.90
8109;DHT22;4097;47.812;12.374;2022-10-03T06:30:19;10.40;99.90
8109;DHT22;4097;47.812;12.374;2022-10-03T06:33:27;10.50;99.90
8109;DHT22;4097;47.812;12.374;2022-10-03T06:39:38;10.50;99.90
8109;DHT22;4097;47.812;12.374;2022-10-03T06:42:42;10.50;99.90
8109;DHT22;4097;47.812;12.374;2022-10-03T06:45:53;10.60;99.90
8109;DHT22;4097;47.812;12.374;2022-10-03T06:48:44;10.60;99.90
8109;DHT22;4097;47.812;12.374;2022-10-03T07:00:35;10.90;99.90
8109;DHT22;4097;47.812;12.374;2022-10-03T07:03:31;10.90;99.90
8109;DHT22;4097;47.812;12.374;2022-10-03T07:06:30;10.90;99.90
8109;DHT22;4097;47.812;12.374;2022-10-03T07:12:53;11.10;99.90
8109;DHT22;4097;47.812;12.374;2022-10-03T07:15:47;11.10;99.90
8109;DHT22;4097;47.812;12.374;2022-10-03T07:27:57;11.30;99.90
8109;DHT22;4097;47.812;12.374;2022-10-03T07:30:30;11.30;99.90
8109;DHT22;4097;47.812;12.374;2022-10-03T07:36:30;11.30;99.90
8109;DHT22;4097;47.812;12.374;2022-10-03T07:42:32;11.50;99.90
8109;DHT22;4097;47.812;12.374;2022-10-03T07:48:21;11.60;99.90
8109;DHT22;4097;47.812;12.374;2022-10-03T07:54:00;11.60;99.90
8109;DHT22;4097;47.812;12.374;2022-10-03T07:56:59;11.60;99.90
8109;DHT22;4097;47.812;12.374;2022-10-03T08:05:48;11.70;99.90
8109;DHT22;4097;47.812;12.374;2022-10-03T08:14:20;11.80;99.90
8109;DHT22;4097;47.812;12.374;2022-10-03T08:17:29;11.80;99.90
8109;DHT22;4097;47.812;12.374;2022-10-03T08:23:36;11.90;99.90
8109;DHT22;4097;47.812;12.374;2022-10-03T08:26:15;12.00;99.90
8109;DHT22;4097;47.812;12.374;2022-10-03T08:29:22;12.00;99.90
8109;DHT22;4097;47.812;12.374;2022-10-03T08:35:33;12.10;99.90
8109;DHT22;4097;47.812;12.374;2022-10-03T08:38:28;12.30;99.90
8109;DHT22;4097;47.812;12.374;2022-10-03T08:44:39;12.50;99.90
8109;DHT22;4097;47.812;12.374;2022-10-03T08:47:24;12.50;99.90
8109;DHT22;4097;47.812;12.374;2022-10-03T08:50:20;12.50;99.90
8109;DHT22;4097;47.812;12.374;2022-10-03T08:53:10;12.60;99.90
8109;DHT22;4097;47.812;12.374;2022-10-03T08:55:55;12.50;99.90
8109;DHT22;4097;47.812;12.374;2022-10-03T08:59:04;12.60;99.90
8109;DHT22;4097;47.812;12.374;2022-10-03T09:05:20;12.60;99.90
8109;DHT22;4097;47.812;12.374;2022-10-03T09:08:31;12.70;99.90
8109;DHT22;4097;47.812;12.374;2022-10-03T09:18:12;12.90;99.90
8109;DHT22;4097;47.812;12.374;2022-10-03T09:21:20;13.00;99.90
8109;DHT22;4097;47.812;12.374;2022-10-03T09:27:21;13.20;99.90
8109;DHT22;4097;47.812;12.374;2022-10-03T09:30:25;13.30;99.90
8109;DHT22;4097;47.812;12.374;2022-10-03T09:36:33;13.40;99.90
8109;DHT22;4097;47.812;12.374;2022-10-03T09:45:54;13.60;99.90
8109;DHT22;4097;47.812;12.374;2022-10-03T09:48:45;13.70;99.90
8109;DHT22;4097;47.812;12.374;2022-10-03T09:51:23;13.70;99.90
8109;DHT22;4097;47.812;12.374;2022-10-03T09:57:45;13.70;99.90
8109;DHT22;4097;47.812;12.374;2022-10-03T10:00:20;13.90;99.90
8109;DHT22;4097;47.812;12.374;2022-10-03T10:03:11;13.80;99.90
8109;DHT22;4097;47.812;12.374;2022-10-03T10:06:06;14.00;99.90
8109;DHT22;4097;47.812;12.374;2022-10-03T10:12:03;14.00;99.90
8109;DHT22;4097;47.812;12.374;2022-10-03T10:15:17;13.90;99.90
8109;DHT22;4097;47.812;12.374;2022-10-03T10:21:25;13.80;99.90
8109;DHT22;4097;47.812;12.374;2022-10-03T10:27:16;13.90;99.90
8109;DHT22;4097;47.812;12.374;2022-10-03T10:30:13;14.10;99.90
8109;DHT22;4097;47.812;12.374;2022-10-03T10:36:52;14.00;99.90
8109;DHT22;4097;47.812;12.374;2022-10-03T10:45:42;13.90;99.90
8109;DHT22;4097;47.812;12.374;2022-10-03T10:48:45;13.90;99.90
8109;DHT22;4097;47.812;12.374;2022-10-03T10:54:49;13.90;99.90
8109;DHT22;4097;47.812;12.374;2022-10-03T10:57:53;14.00;99.90
8109;DHT22;4097;47.812;12.374;2022-10-03T11:00:38;13.90;99.90
8109;DHT22;4097;47.812;12.374;2022-10-03T11:12:47;13.70;99.90
8109;DHT22;4097;47.812;12.374;2022-10-03T11:19:21;13.70;99.90
8109;DHT22;4097;47.812;12.374;2022-10-03T11:37:44;13.90;99.90
8109;DHT22;4097;47.812;12.374;2022-10-03T11:40:24;13.90;99.90
8109;DHT22;4097;47.812;12.374;2022-10-03T11:43:02;14.00;99.90
8109;DHT22;4097;47.812;12.374;2022-10-03T11:45:35;14.00;99.90
8109;DHT22;4097;47.812;12.374;2022-10-03T11:48:25;14.10;99.90
8109;DHT22;4097;47.812;12.374;2022-10-03T11:51:00;14.10;99.90
8109;DHT22;4097;47.812;12.374;2022-10-03T11:53:39;14.30;99.90
8109;DHT22;4097;47.812;12.374;2022-10-03T11:56:19;14.40;99.90
8109;DHT22;4097;47.812;12.374;2022-10-03T11:58:57;14.60;99.90
8109;DHT22;4097;47.812;12.374;2022-10-03T12:01:38;14.70;99.90
8109;DHT22;4097;47.812;12.374;2022-10-03T12:04:14;14.60;99.90
8109;DHT22;4097;47.812;12.374;2022-10-03T12:07:03;14.60;99.90
8109;DHT22;4097;47.812;12.374;2022-10-03T12:10:02;14.40;99.90
8109;DHT22;4097;47.812;12.374;2022-10-03T12:12:39;14.30;99.90
8109;DHT22;4097;47.812;12.374;2022-10-03T12:15:23;14.30;99.90
8109;DHT22;4097;47.812;12.374;2022-10-03T12:18:00;14.20;99.90
8109;DHT22;4097;47.812;12.374;2022-10-03T12:20:37;14.30;99.90
8109;DHT22;4097;47.812;12.374;2022-10-03T12:23:19;14.10;99.90
8109;DHT22;4097;47.812;12.374;2022-10-03T12:25:51;14.20;99.90
8109;DHT22;4097;47.812;12.374;2022-10-03T12:28:23;14.30;99.90
8109;DHT22;4097;47.812;12.374;2022-10-03T12:30:56;14.30;99.90
8109;DHT22;4097;47.812;12.374;2022-10-03T12:33:42;14.40;99.90
8109;DHT22;4097;47.812;12.374;2022-10-03T12:36:14;14.60;99.90
8109;DHT22;4097;47.812;12.374;2022-10-03T12:38:55;14.70;99.90
8109;DHT22;4097;47.812;12.374;2022-10-03T12:41:53;14.70;99.90
8109;DHT22;4097;47.812;12.374;2022-10-03T12:44:31;14.60;99.90
8109;DHT22;4097;47.812;12.374;2022-10-03T12:47:13;14.50;99.90
8109;DHT22;4097;47.812;12.374;2022-10-03T12:49:51;14.40;99.90
8109;DHT22;4097;47.812;12.374;2022-10-03T12:52:26;14.30;99.90
8109;DHT22;4097;47.812;12.374;2022-10-03T12:57:51;14.30;99.90
8109;DHT22;4097;47.812;12.374;2022-10-03T13:00:22;14.30;99.90
8109;DHT22;4097;47.812;12.374;2022-10-03T13:03:05;14.20;99.90
8109;DHT22;4097;47.812;12.374;2022-10-03T13:05:47;14.20;99.90
8109;DHT22;4097;47.812;12.374;2022-10-03T13:08:43;14.30;99.90
8109;DHT22;4097;47.812;12.374;2022-10-03T13:11:29;14.30;99.90
8109;DHT22;4097;47.812;12.374;2022-10-03T13:14:13;14.30;99.90
8109;DHT22;4097;47.812;12.374;2022-10-03T13:16:53;14.50;99.90
8109;DHT22;4097;47.812;12.374;2022-10-03T13:19:25;14.50;99.90
8109;DHT22;4097;47.812;12.374;2022-10-03T13:22:02;14.60;99.90
8109;DHT22;4097;47.812;12.374;2022-10-03T13:24:35;14.60;99.90
8109;DHT22;4097;47.812;12.374;2022-10-03T13:27:18;14.70;99.90
8109;DHT22;4097;47.812;12.374;2022-10-03T13:29:53;14.70;99.90
8109;DHT22;4097;47.812;12.374;2022-10-03T13:32:29;14.70;99.90
8109;DHT22;4097;47.812;12.374;2022-10-03T13:35:09;14.70;99.90
8109;DHT22;4097;47.812;12.374;2022-10-03T13:38:19;14.60;99.90
8109;DHT22;4097;47.812;12.374;2022-10-03T13:40:56;14.60;99.90
8109;DHT22;4097;47.812;12.374;2022-10-03T13:43:31;14.60;99.90
8109;DHT22;4097;47.812;12.374;2022-10-03T13:46:01;14.60;99.90
8109;DHT22;4097;47.812;12.374;2022-10-03T13:48:29;14.50;99.90
8109;DHT22;4097;47.812;12.374;2022-10-03T13:51:01;14.60;99.90
8109;DHT22;4097;47.812;12.374;2022-10-03T13:53:53;14.60;99.90
8109;DHT22;4097;47.812;12.374;2022-10-03T13:59:41;14.50;99.90
8109;DHT22;4097;47.812;12.374;2022-10-03T14:02:35;14.60;99.90
8109;DHT22;4097;47.812;12.374;2022-10-03T14:08:11;15.00;99.90
8109;DHT22;4097;47.812;12.374;2022-10-03T14:11:09;15.00;99.90
8109;DHT22;4097;47.812;12.374;2022-10-03T14:13:53;15.00;99.90
8109;DHT22;4097;47.812;12.374;2022-10-03T14:16:29;15.00;99.90
8109;DHT22;4097;47.812;12.374;2022-10-03T14:19:02;14.90;99.90
8109;DHT22;4097;47.812;12.374;2022-10-03T14:24:47;14.80;99.90
8109;DHT22;4097;47.812;12.374;2022-10-03T14:27:35;14.80;99.90
8109;DHT22;4097;47.812;12.374;2022-10-03T14:30:05;15.00;99.90
8109;DHT22;4097;47.812;12.374;2022-10-03T14:32:41;15.20;99.90
8109;DHT22;4097;47.812;12.374;2022-10-03T14:35:18;15.50;99.90
8109;DHT22;4097;47.812;12.374;2022-10-03T14:37:56;15.60;99.90
8109;DHT22;4097;47.812;12.374;2022-10-03T14:40:28;15.60;99.90
8109;DHT22;4097;47.812;12.374;2022-10-03T14:43:03;15.50;99.70
8109;DHT22;4097;47.812;12.374;2022-10-03T14:45:37;15.50;99.80
8109;DHT22;4097;47.812;12.374;2022-10-03T14:48:12;15.30;99.70
8109;DHT22;4097;47.812;12.374;2022-10-03T14:50:41;15.30;99.90
8109;DHT22;4097;47.812;12.374;2022-10-03T14:53:15;15.20;99.90
8109;DHT22;4097;47.812;12.374;2022-10-03T14:55:45;15.20;99.90
8109;DHT22;4097;47.812;12.374;2022-10-03T14:58:21;15.10;99.90
8109;DHT22;4097;47.812;12.374;2022-10-03T15:00:52;15.10;99.90
8109;DHT22;4097;47.812;12.374;2022-10-03T15:03:33;15.10;99.90
8109;DHT22;4097;47.812;12.374;2022-10-03T15:06:20;15.00;99.90
8109;DHT22;4097;47.812;12.374;2022-10-03T15:08:50;14.90;99.90
8109;DHT22;4097;47.812;12.374;2022-10-03T15:11:24;14.90;99.90
8109;DHT22;4097;47.812;12.374;2022-10-03T15:13:55;14.90;99.90
8109;DHT22;4097;47.812;12.374;2022-10-03T15:16:28;14.90;99.90
8109;DHT22;4097;47.812;12.374;2022-10-03T15:19:02;14.80;99.90
8109;DHT22;4097;47.812;12.374;2022-10-03T15:21:31;14.80;99.90
8109;DHT22;4097;47.812;12.374;2022-10-03T15:24:01;14.80;99.90
8109;DHT22;4097;47.812;12.374;2022-10-03T15:26:34;14.80;99.90
8109;DHT22;4097;47.812;12.374;2022-10-03T15:29:04;14.70;99.90
8109;DHT22;4097;47.812;12.374;2022-10-03T15:31:33;14.70;99.90
8109;DHT22;4097;47.812;12.374;2022-10-03T15:34:05;14.60;99.90
8109;DHT22;4097;47.812;12.374;2022-10-03T15:36:36;14.60;99.90
8109;DHT22;4097;47.812;12.374;2022-10-03T15:39:07;14.60;99.90
8109;DHT22;4097;47.812;12.374;2022-10-03T15:41:49;14.60;99.90
8109;DHT22;4097;47.812;12.374;2022-10-03T15:44:19;14.60;99.90
8109;DHT22;4097;47.812;12.374;2022-10-03T15:46:50;14.60;99.90
8109;DHT22;4097;47.812;12.374;2022-10-03T15:49:24;14.60;99.90
8109;DHT22;4097;47.812;12.374;2022-10-03T15:51:52;14.50;99.90
8109;DHT22;4097;47.812;12.374;2022-10-03T15:54:22;14.50;99.90
8109;DHT22;4097;47.812;12.374;2022-10-03T15:56:52;14.40;99.90
8109;DHT22;4097;47.812;12.374;2022-10-03T15:59:24;14.30;99.90
8109;DHT22;4097;47.812;12.374;2022-10-03T16:01:54;14.30;99.90
8109;DHT22;4097;47.812;12.374;2022-10-03T16:04:25;14.30;99.90
8109;DHT22;4097;47.812;12.374;2022-10-03T16:06:59;14.30;99.90
8109;DHT22;4097;47.812;12.374;2022-10-03T16:09:33;14.20;99.90
8109;DHT22;4097;47.812;12.374;2022-10-03T16:12:21;14.20;99.90
8109;DHT22;4097;47.812;12.374;2022-10-03T16:14:58;14.10;99.90
8109;DHT22;4097;47.812;12.374;2022-10-03T16:17:37;14.00;99.90
8109;DHT22;4097;47.812;12.374;2022-10-03T16:20:18;14.00;99.90
8109;DHT22;4097;47.812;12.374;2022-10-03T16:22:49;13.90;99.90
8109;DHT22;4097;47.812;12.374;2022-10-03T16:25:20;13.80;99.90
8109;DHT22;4097;47.812;12.374;2022-10-03T16:27:53;13.70;99.90
8109;DHT22;4097;47.812;12.374;2022-10-03T16:30:21;13.60;99.90
8109;DHT22;4097;47.812;12.374;2022-10-03T16:32:54;13.60;99.90
8109;DHT22;4097;47.812;12.374;2022-10-03T16:35:32;13.50;99.90
8109;DHT22;4097;47.812;12.374;2022-10-03T16:38:02;13.40;99.90
8109;DHT22;4097;47.812;12.374;2022-10-03T16:40:31;13.40;99.90
8109;DHT22;4097;47.812;12.374;2022-10-03T16:43:02;13.40;99.90
8109;DHT22;4097;47.812;12.374;2022-10-03T16:45:35;13.30;99.90
8109;DHT22;4097;47.812;12.374;2022-10-03T16:48:10;13.10;99.90
8109;DHT22;4097;47.812;12.374;2022-10-03T16:50:57;13.10;99.90
8109;DHT22;4097;47.812;12.374;2022-10-03T16:53:24;13.10;99.90
8109;DHT22;4097;47.812;12.374;2022-10-03T16:55:54;13.10;99.90
8109;DHT22;4097;47.812;12.374;2022-10-03T16:58:26;13.10;99.90
8109;DHT22;4097;47.812;12.374;2022-10-03T17:00:58;13.20;99.90
8109;DHT22;4097;47.812;12.374;2022-10-03T17:03:30;13.10;99.90
8109;DHT22;4097;47.812;12.374;2022-10-03T17:06:04;13.10;99.90
8109;DHT22;4097;47.812;12.374;2022-10-03T17:08:35;13.00;99.90
8109;DHT22;4097;47.812;12.374;2022-10-03T17:11:07;13.00;99.90
8109;DHT22;4097;47.812;12.374;2022-10-03T17:13:41;12.90;99.90
8109;DHT22;4097;47.812;12.374;2022-10-03T17:16:13;12.90;99.90
8109;DHT22;4097;47.812;12.374;2022-10-03T17:18:44;12.80;99.90
8109;DHT22;4097;47.812;12.374;2022-10-03T17:21:23;12.80;99.90
8109;DHT22;4097;47.812;12.374;2022-10-03T17:24:00;12.70;99.90
8109;DHT22;4097;47.812;12.374;2022-10-03T17:26:34;12.70;99.90
8109;DHT22;4097;47.812;12.374;2022-10-03T17:29:11;12.70;99.90
8109;DHT22;4097;47.812;12.374;2022-10-03T17:31:44;12.70;99.90
8109;DHT22;4097;47.812;12.374;2022-10-03T17:34:15;12.60;99.90
8109;DHT22;4097;47.812;12.374;2022-10-03T17:37:04;12.60;99.90
8109;DHT22;4097;47.812;12.374;2022-10-03T17:39:37;12.60;99.90
8109;DHT22;4097;47.812;12.374;2022-10-03T17:42:17;12.50;99.90
8109;DHT22;4097;47.812;12.374;2022-10-03T17:44:55;12.50;99.90
8109;DHT22;4097;47.812;12.374;2022-10-03T17:47:30;12.50;99.90
8109;DHT22;4097;47.812;12.374;2022-10-03T17:50:04;12.50;99.90
8109;DHT22;4097;47.812;12.374;2022-10-03T17:52:38;12.50;99.90
8109;DHT22;4097;47.812;12.374;2022-10-03T17:55:08;12.40;99.90
8109;DHT22;4097;47.812;12.374;2022-10-03T17:57:43;12.40;99.90
8109;DHT22;4097;47.812;12.374;2022-10-03T18:00:17;12.30;99.90
8109;DHT22;4097;47.812;12.374;2022-10-03T18:02:53;12.30;99.90
8109;DHT22;4097;47.812;12.374;2022-10-03T18:05:24;12.30;99.90
8109;DHT22;4097;47.812;12.374;2022-10-03T18:07:54;12.30;99.90
8109;DHT22;4097;47.812;12.374;2022-10-03T18:10:25;12.30;99.90
8109;DHT22;4097;47.812;12.374;2022-10-03T18:12:57;12.30;99.90
8109;DHT22;4097;47.812;12.374;2022-10-03T18:19:01;12.40;99.90
8109;DHT22;4097;47.812;12.374;2022-10-03T18:24:55;12.30;99.90
8109;DHT22;4097;47.812;12.374;2022-10-03T18:30:27;12.40;99.90
8109;DHT22;4097;47.812;12.374;2022-10-03T18:32:58;12.30;99.90
8109;DHT22;4097;47.812;12.374;2022-10-03T18:35:27;12.40;99.90
8109;DHT22;4097;47.812;12.374;2022-10-03T18:38:02;12.40;99.90
8109;DHT22;4097;47.812;12.374;2022-10-03T18:40:33;12.40;99.90
8109;DHT22;4097;47.812;12.374;2022-10-03T18:43:03;12.40;99.90
8109;DHT22;4097;47.812;12.374;2022-10-03T18:45:36;12.40;99.90
8109;DHT22;4097;47.812;12.374;2022-10-03T18:48:10;12.40;99.90
8109;DHT22;4097;47.812;12.374;2022-10-03T18:50:51;12.40;99.90
8109;DHT22;4097;47.812;12.374;2022-10-03T18:53:22;12.40;99.90
8109;DHT22;4097;47.812;12.374;2022-10-03T18:55:58;12.40;99.90
8109;DHT22;4097;47.812;12.374;2022-10-03T18:58:30;12.40;99.90
8109;DHT22;4097;47.812;12.374;2022-10-03T19:01:01;12.40;99.90
8109;DHT22;4097;47.812;12.374;2022-10-03T19:03:33;12.40;99.90
8109;DHT22;4097;47.812;12.374;2022-10-03T19:06:04;12.40;99.90
8109;DHT22;4097;47.812;12.374;2022-10-03T19:08:36;12.40;99.90
8109;DHT22;4097;47.812;12.374;2022-10-03T19:11:20;12.30;99.90
8109;DHT22;4097;47.812;12.374;2022-10-03T19:13:57;12.30;99.90
8109;DHT22;4097;47.812;12.374;2022-10-03T19:16:48;12.30;99.90
8109;DHT22;4097;47.812;12.374;2022-10-03T19:19:23;12.20;99.90
8109;DHT22;4097;47.812;12.374;2022-10-03T19:21:55;12.20;99.90
8109;DHT22;4097;47.812;12.374;2022-10-03T19:24:28;12.10;99.90
8109;DHT22;4097;47.812;12.374;2022-10-03T19:27:00;12.10;99.90
8109;DHT22;4097;47.812;12.374;2022-10-03T19:29:32;12.10;99.90
8109;DHT22;4097;47.812;12.374;2022-10-03T19:32:02;12.10;99.90
8109;DHT22;4097;47.812;12.374;2022-10-03T19:34:35;12.10;99.90
8109;DHT22;4097;47.812;12.374;2022-10-03T19:37:06;12.10;99.90
8109;DHT22;4097;47.812;12.374;2022-10-03T19:39:34;12.00;99.90
8109;DHT22;4097;47.812;12.374;2022-10-03T19:42:17;11.90;99.90
8109;DHT22;4097;47.812;12.374;2022-10-03T19:44:48;11.90;99.90
8109;DHT22;4097;47.812;12.374;2022-10-03T19:47:17;11.80;99.90
8109;DHT22;4097;47.812;12.374;2022-10-03T19:49:58;11.80;99.90
8109;DHT22;4097;47.812;12.374;2022-10-03T19:52:29;11.70;99.90
8109;DHT22;4097;47.812;12.374;2022-10-03T19:55:08;11.70;99.90
8109;DHT22;4097;47.812;12.374;2022-10-03T19:57:42;11.70;99.90
8109;DHT22;4097;47.812;12.374;2022-10-03T20:00:21;11.60;99.90
8109;DHT22;4097;47.812;12.374;2022-10-03T20:02:56;11.60;99.90
8109;DHT22;4097;47.812;12.374;2022-10-03T20:05:34;11.70;99.90
8109;DHT22;4097;47.812;12.374;2022-10-03T20:08:16;11.70;99.90
8109;DHT22;4097;47.812;12.374;2022-10-03T20:11:00;11.70;99.90
8109;DHT22;4097;47.812;12.374;2022-10-03T20:13:30;11.70;99.90
8109;DHT22;4097;47.812;12.374;2022-10-03T20:15:58;11.70;99.90
8109;DHT22;4097;47.812;12.374;2022-10-03T20:18:28;11.70;99.90
8109;DHT22;4097;47.812;12.374;2022-10-03T20:20:58;11.70;99.90
8109;DHT22;4097;47.812;12.374;2022-10-03T20:23:30;11.70;99.90
8109;DHT22;4097;47.812;12.374;2022-10-03T20:26:01;11.70;99.90
8109;DHT22;4097;47.812;12.374;2022-10-03T20:28:45;11.70;99.90
8109;DHT22;4097;47.812;12.374;2022-10-03T20:31:19;11.70;99.90
8109;DHT22;4097;47.812;12.374;2022-10-03T20:33:46;11.70;99.90
8109;DHT22;4097;47.812;12.374;2022-10-03T20:36:18;11.70;99.90
8109;DHT22;4097;47.812;12.374;2022-10-03T20:39:06;11.60;99.90
8109;DHT22;4097;47.812;12.374;2022-10-03T20:41:46;11.60;99.90
8109;DHT22;4097;47.812;12.374;2022-10-03T20:44:20;11.60;99.90
8109;DHT22;4097;47.812;12.374;2022-10-03T20:47:00;11.50;99.90
8109;DHT22;4097;47.812;12.374;2022-10-03T20:49:33;11.50;99.90
8109;DHT22;4097;47.812;12.374;2022-10-03T20:52:03;11.50;99.90